sensor_id;sensor_type;location;lat;lon;timestamp;P1;durP1;ratioP1;P2;durP2;ratioP2
68647;SDS011;55632;51.962;16.116;2023-05-31T00:04:28;7.82;;;2.97;;
68647;SDS011;55632;51.962;16.116;2023-05-31T00:09:29;6.10;;;3.55;;
68647;SDS011;55632;51.962;16.116;2023-05-31T00:14:29;10.52;;;4.13;;
68647;SDS011;55632;51.962;16.116;2023-05-31T00:19:30;9.18;;;3.63;;
68647;SDS011;55632;51.962;16.116;2023-05-31T00:24:31;14.35;;;4.57;;
68647;SDS011;55632;51.962;16.116;2023-05-31T00:29:32;7.57;;;3.78;;
68647;SDS011;55632;51.962;16.116;2023-05-31T00:34:32;7.80;;;3.78;;
68647;SDS011;55632;51.962;16.116;2023-05-31T00:39:33;8.27;;;3.85;;
68647;SDS011;55632;51.962;16.116;2023-05-31T00:44:35;8.38;;;3.60;;
68647;SDS011;55632;51.962;16.116;2023-05-31T00:49:35;9.63;;;3.83;;
68647;SDS011;55632;51.962;16.116;2023-05-31T00:54:36;9.38;;;4.07;;
68647;SDS011;55632;51.962;16.116;2023-05-31T00:59:37;8.75;;;3.60;;
68647;SDS011;55632;51.962;16.116;2023-05-31T01:04:38;6.70;;;3.40;;
68647;SDS011;55632;51.962;16.116;2023-05-31T01:09:39;8.90;;;3.08;;
68647;SDS011;55632;51.962;16.116;2023-05-31T01:19:53;8.55;;;3.03;;
68647;SDS011;55632;51.962;16.116;2023-05-31T01:30:27;8.55;;;3.53;;
68647;SDS011;55632;51.962;16.116;2023-05-31T01:35:30;4.13;;;2.75;;
68647;SDS011;55632;51.962;16.116;2023-05-31T01:40:30;5.10;;;2.83;;
68647;SDS011;55632;51.962;16.116;2023-05-31T01:45:33;7.30;;;2.58;;
68647;SDS011;55632;51.962;16.116;2023-05-31T01:50:37;9.07;;;3.00;;
68647;SDS011;55632;51.962;16.116;2023-05-31T01:55:41;5.63;;;2.90;;
68647;SDS011;55632;51.962;16.116;2023-05-31T02:00:43;6.15;;;2.53;;
68647;SDS011;55632;51.962;16.116;2023-05-31T02:05:58;13.60;;;4.40;;
68647;SDS011;55632;51.962;16.116;2023-05-31T02:11:00;5.18;;;2.80;;
68647;SDS011;55632;51.962;16.116;2023-05-31T02:16:01;9.15;;;3.20;;
68647;SDS011;55632;51.962;16.116;2023-05-31T02:21:04;4.85;;;3.10;;
68647;SDS011;55632;51.962;16.116;2023-05-31T02:26:06;4.20;;;2.72;;
68647;SDS011;55632;51.962;16.116;2023-05-31T02:31:06;8.55;;;3.38;;
68647;SDS011;55632;51.962;16.116;2023-05-31T02:36:08;12.93;;;3.45;;
68647;SDS011;55632;51.962;16.116;2023-05-31T02:41:10;6.85;;;2.97;;
68647;SDS011;55632;51.962;16.116;2023-05-31T02:46:12;6.80;;;2.78;;
68647;SDS011;55632;51.962;16.116;2023-05-31T02:51:13;5.53;;;2.70;;
68647;SDS011;55632;51.962;16.116;2023-05-31T02:56:45;5.22;;;2.30;;
68647;SDS011;55632;51.962;16.116;2023-05-31T03:01:52;13.48;;;4.07;;
68647;SDS011;55632;51.962;16.116;2023-05-31T03:07:11;6.25;;;3.08;;
68647;SDS011;55632;51.962;16.116;2023-05-31T03:12:12;13.77;;;3.35;;
68647;SDS011;55632;51.962;16.116;2023-05-31T03:17:15;12.80;;;4.28;;
68647;SDS011;55632;51.962;16.116;2023-05-31T03:22:15;8.63;;;2.90;;
68647;SDS011;55632;51.962;16.116;2023-05-31T03:27:16;11.65;;;3.15;;
68647;SDS011;55632;51.962;16.116;2023-05-31T03:32:18;8.35;;;2.53;;
68647;SDS011;55632;51.962;16.116;2023-05-31T03:37:19;12.38;;;3.25;;
68647;SDS011;55632;51.962;16.116;2023-05-31T03:42:25;6.93;;;2.45;;
68647;SDS011;55632;51.962;16.116;2023-05-31T03:47:26;4.38;;;2.20;;
68647;SDS011;55632;51.962;16.116;2023-05-31T03:52:30;5.75;;;2.67;;
68647;SDS011;55632;51.962;16.116;2023-05-31T03:57:31;8.75;;;3.00;;
68647;SDS011;55632;51.962;16.116;2023-05-31T04:02:31;7.53;;;2.90;;
68647;SDS011;55632;51.962;16.116;2023-05-31T04:07:32;9.23;;;2.95;;
68647;SDS011;55632;51.962;16.116;2023-05-31T04:18:49;5.40;;;2.33;;
68647;SDS011;55632;51.962;16.116;2023-05-31T04:23:51;7.95;;;3.15;;
68647;SDS011;55632;51.962;16.116;2023-05-31T04:28:53;10.95;;;3.35;;
68647;SDS011;55632;51.962;16.116;2023-05-31T04:33:55;13.65;;;4.40;;
68647;SDS011;55632;51.962;16.116;2023-05-31T04:39:01;7.53;;;3.00;;
68647;SDS011;55632;51.962;16.116;2023-05-31T04:44:06;38.80;;;5.63;;
68647;SDS011;55632;51.962;16.116;2023-05-31T04:49:08;12.77;;;3.05;;
68647;SDS011;55632;51.962;16.116;2023-05-31T04:54:10;8.70;;;2.97;;
68647;SDS011;55632;51.962;16.116;2023-05-31T04:59:11;11.25;;;3.45;;
68647;SDS011;55632;51.962;16.116;2023-05-31T05:04:12;8.05;;;3.22;;
68647;SDS011;55632;51.962;16.116;2023-05-31T05:09:14;12.75;;;3.45;;
68647;SDS011;55632;51.962;16.116;2023-05-31T05:14:16;9.02;;;3.67;;
68647;SDS011;55632;51.962;16.116;2023-05-31T05:19:17;9.38;;;3.45;;
68647;SDS011;55632;51.962;16.116;2023-05-31T05:24:18;13.95;;;3.97;;
68647;SDS011;55632;51.962;16.116;2023-05-31T05:29:21;50.20;;;6.57;;
68647;SDS011;55632;51.962;16.116;2023-05-31T05:34:22;8.20;;;3.30;;
68647;SDS011;55632;51.962;16.116;2023-05-31T05:39:23;12.48;;;4.47;;
68647;SDS011;55632;51.962;16.116;2023-05-31T05:44:24;10.27;;;3.47;;
68647;SDS011;55632;51.962;16.116;2023-05-31T05:49:25;9.23;;;3.70;;
68647;SDS011;55632;51.962;16.116;2023-05-31T05:54:26;7.68;;;3.20;;
68647;SDS011;55632;51.962;16.116;2023-05-31T05:59:28;8.48;;;3.40;;
68647;SDS011;55632;51.962;16.116;2023-05-31T06:04:34;12.10;;;3.88;;
68647;SDS011;55632;51.962;16.116;2023-05-31T06:09:37;9.48;;;3.53;;
68647;SDS011;55632;51.962;16.116;2023-05-31T06:14:40;10.23;;;3.80;;
68647;SDS011;55632;51.962;16.116;2023-05-31T06:19:43;8.27;;;3.58;;
68647;SDS011;55632;51.962;16.116;2023-05-31T06:24:44;12.43;;;3.28;;
68647;SDS011;55632;51.962;16.116;2023-05-31T06:29:47;16.55;;;4.10;;
68647;SDS011;55632;51.962;16.116;2023-05-31T06:34:59;9.40;;;3.42;;
68647;SDS011;55632;51.962;16.116;2023-05-31T06:40:00;21.98;;;3.95;;
68647;SDS011;55632;51.962;16.116;2023-05-31T06:45:01;11.18;;;4.22;;
68647;SDS011;55632;51.962;16.116;2023-05-31T06:50:22;14.35;;;3.40;;
68647;SDS011;55632;51.962;16.116;2023-05-31T06:55:42;10.77;;;3.38;;
68647;SDS011;55632;51.962;16.116;2023-05-31T07:00:45;9.63;;;3.72;;
68647;SDS011;55632;51.962;16.116;2023-05-31T07:05:46;8.68;;;3.75;;
68647;SDS011;55632;51.962;16.116;2023-05-31T07:10:47;11.80;;;4.13;;
68647;SDS011;55632;51.962;16.116;2023-05-31T07:15:48;11.05;;;3.58;;
68647;SDS011;55632;51.962;16.116;2023-05-31T07:20:49;7.78;;;3.65;;
68647;SDS011;55632;51.962;16.116;2023-05-31T07:25:49;13.02;;;4.13;;
68647;SDS011;55632;51.962;16.116;2023-05-31T07:30:50;9.48;;;3.60;;
68647;SDS011;55632;51.962;16.116;2023-05-31T07:35:51;13.38;;;3.25;;
68647;SDS011;55632;51.962;16.116;2023-05-31T07:40:52;6.18;;;3.50;;
68647;SDS011;55632;51.962;16.116;2023-05-31T07:45:53;12.20;;;3.60;;
68647;SDS011;55632;51.962;16.116;2023-05-31T07:50:54;6.88;;;3.13;;
68647;SDS011;55632;51.962;16.116;2023-05-31T08:01:26;18.23;;;3.28;;
68647;SDS011;55632;51.962;16.116;2023-05-31T08:06:27;9.77;;;3.40;;
68647;SDS011;55632;51.962;16.116;2023-05-31T08:11:27;21.48;;;4.20;;
68647;SDS011;55632;51.962;16.116;2023-05-31T08:16:28;6.40;;;3.40;;
68647;SDS011;55632;51.962;16.116;2023-05-31T08:21:29;10.00;;;3.10;;
68647;SDS011;55632;51.962;16.116;2023-05-31T08:26:30;7.90;;;3.28;;
68647;SDS011;55632;51.962;16.116;2023-05-31T08:31:30;7.88;;;3.15;;
68647;SDS011;55632;51.962;16.116;2023-05-31T08:36:31;6.03;;;2.67;;
68647;SDS011;55632;51.962;16.116;2023-05-31T08:41:32;10.10;;;4.35;;
68647;SDS011;55632;51.962;16.116;2023-05-31T08:46:42;8.13;;;2.75;;
68647;SDS011;55632;51.962;16.116;2023-05-31T08:51:46;8.77;;;2.78;;
68647;SDS011;55632;51.962;16.116;2023-05-31T08:56:48;6.50;;;2.53;;
68647;SDS011;55632;51.962;16.116;2023-05-31T09:01:50;8.30;;;2.70;;
68647;SDS011;55632;51.962;16.116;2023-05-31T09:06:52;8.85;;;3.10;;
68647;SDS011;55632;51.962;16.116;2023-05-31T09:11:53;7.72;;;2.50;;
68647;SDS011;55632;51.962;16.116;2023-05-31T09:16:54;7.88;;;2.25;;
68647;SDS011;55632;51.962;16.116;2023-05-31T09:21:55;4.97;;;2.15;;
68647;SDS011;55632;51.962;16.116;2023-05-31T09:26:55;6.80;;;2.70;;
68647;SDS011;55632;51.962;16.116;2023-05-31T09:32:09;10.13;;;2.88;;
68647;SDS011;55632;51.962;16.116;2023-05-31T09:37:10;6.57;;;2.30;;
68647;SDS011;55632;51.962;16.116;2023-05-31T09:42:25;6.10;;;2.42;;
68647;SDS011;55632;51.962;16.116;2023-05-31T09:47:27;5.55;;;2.20;;
68647;SDS011;55632;51.962;16.116;2023-05-31T09:52:28;5.75;;;1.95;;
68647;SDS011;55632;51.962;16.116;2023-05-31T09:57:36;7.75;;;2.60;;
68647;SDS011;55632;51.962;16.116;2023-05-31T10:02:44;7.07;;;2.50;;
68647;SDS011;55632;51.962;16.116;2023-05-31T10:07:50;11.15;;;3.35;;
68647;SDS011;55632;51.962;16.116;2023-05-31T10:12:58;8.93;;;2.60;;
68647;SDS011;55632;51.962;16.116;2023-05-31T10:18:05;21.25;;;4.15;;
68647;SDS011;55632;51.962;16.116;2023-05-31T10:23:21;6.32;;;2.53;;
68647;SDS011;55632;51.962;16.116;2023-05-31T10:28:25;6.57;;;2.42;;
68647;SDS011;55632;51.962;16.116;2023-05-31T10:33:28;6.85;;;2.40;;
68647;SDS011;55632;51.962;16.116;2023-05-31T10:38:41;6.72;;;2.17;;
68647;SDS011;55632;51.962;16.116;2023-05-31T10:43:57;6.18;;;1.92;;
68647;SDS011;55632;51.962;16.116;2023-05-31T10:49:02;4.65;;;2.10;;
68647;SDS011;55632;51.962;16.116;2023-05-31T10:54:05;12.20;;;2.72;;
68647;SDS011;55632;51.962;16.116;2023-05-31T10:59:08;3.88;;;2.00;;
68647;SDS011;55632;51.962;16.116;2023-05-31T11:04:20;6.57;;;2.05;;
68647;SDS011;55632;51.962;16.116;2023-05-31T11:09:25;10.32;;;2.13;;
68647;SDS011;55632;51.962;16.116;2023-05-31T11:14:27;4.15;;;1.90;;
68647;SDS011;55632;51.962;16.116;2023-05-31T11:19:34;4.03;;;2.03;;
68647;SDS011;55632;51.962;16.116;2023-05-31T11:24:37;5.18;;;2.03;;
68647;SDS011;55632;51.962;16.116;2023-05-31T11:34:56;5.75;;;2.30;;
68647;SDS011;55632;51.962;16.116;2023-05-31T11:40:03;5.32;;;2.13;;
68647;SDS011;55632;51.962;16.116;2023-05-31T11:45:12;6.43;;;1.58;;
68647;SDS011;55632;51.962;16.116;2023-05-31T11:50:15;50.63;;;4.82;;
68647;SDS011;55632;51.962;16.116;2023-05-31T11:55:16;7.63;;;1.70;;
68647;SDS011;55632;51.962;16.116;2023-05-31T12:00:18;6.97;;;1.77;;
68647;SDS011;55632;51.962;16.116;2023-05-31T12:05:21;4.38;;;1.85;;
68647;SDS011;55632;51.962;16.116;2023-05-31T12:10:30;8.85;;;1.90;;
68647;SDS011;55632;51.962;16.116;2023-05-31T12:15:31;7.35;;;2.10;;
68647;SDS011;55632;51.962;16.116;2023-05-31T12:20:33;5.68;;;1.90;;
68647;SDS011;55632;51.962;16.116;2023-05-31T12:25:35;4.00;;;1.67;;
68647;SDS011;55632;51.962;16.116;2023-05-31T12:30:46;8.00;;;2.00;;
68647;SDS011;55632;51.962;16.116;2023-05-31T12:35:52;3.70;;;1.60;;
68647;SDS011;55632;51.962;16.116;2023-05-31T12:40:53;4.57;;;2.10;;
68647;SDS011;55632;51.962;16.116;2023-05-31T12:45:54;2.95;;;1.83;;
68647;SDS011;55632;51.962;16.116;2023-05-31T12:50:56;6.95;;;2.00;;
68647;SDS011;55632;51.962;16.116;2023-05-31T12:55:57;3.28;;;1.70;;
68647;SDS011;55632;51.962;16.116;2023-05-31T13:00:59;6.40;;;1.83;;
68647;SDS011;55632;51.962;16.116;2023-05-31T13:06:00;6.75;;;1.67;;
68647;SDS011;55632;51.962;16.116;2023-05-31T13:11:02;4.88;;;1.70;;
68647;SDS011;55632;51.962;16.116;2023-05-31T13:16:03;4.32;;;1.50;;
68647;SDS011;55632;51.962;16.116;2023-05-31T13:21:07;4.25;;;1.50;;
68647;SDS011;55632;51.962;16.116;2023-05-31T13:26:08;3.28;;;1.50;;
68647;SDS011;55632;51.962;16.116;2023-05-31T13:31:09;3.78;;;1.70;;
68647;SDS011;55632;51.962;16.116;2023-05-31T13:36:14;1.30;;;1.20;;
68647;SDS011;55632;51.962;16.116;2023-05-31T13:41:15;5.75;;;1.77;;
68647;SDS011;55632;51.962;16.116;2023-05-31T13:46:16;3.03;;;1.52;;
68647;SDS011;55632;51.962;16.116;2023-05-31T13:51:18;4.03;;;1.60;;
68647;SDS011;55632;51.962;16.116;2023-05-31T13:56:19;13.75;;;10.80;;
68647;SDS011;55632;51.962;16.116;2023-05-31T14:01:20;5.55;;;2.05;;
68647;SDS011;55632;51.962;16.116;2023-05-31T14:06:26;2.70;;;1.45;;
68647;SDS011;55632;51.962;16.116;2023-05-31T14:11:27;4.47;;;1.67;;
68647;SDS011;55632;51.962;16.116;2023-05-31T14:16:28;3.78;;;1.42;;
68647;SDS011;55632;51.962;16.116;2023-05-31T14:21:29;6.90;;;1.92;;
68647;SDS011;55632;51.962;16.116;2023-05-31T14:26:32;2.78;;;1.95;;
68647;SDS011;55632;51.962;16.116;2023-05-31T14:31:33;34.70;;;4.93;;
68647;SDS011;55632;51.962;16.116;2023-05-31T14:36:39;6.38;;;1.80;;
68647;SDS011;55632;51.962;16.116;2023-05-31T14:41:40;26.75;;;8.27;;
68647;SDS011;55632;51.962;16.116;2023-05-31T14:46:44;4.93;;;2.63;;
68647;SDS011;55632;51.962;16.116;2023-05-31T14:51:45;6.90;;;2.63;;
68647;SDS011;55632;51.962;16.116;2023-05-31T14:56:48;45.30;;;14.55;;
68647;SDS011;55632;51.962;16.116;2023-05-31T15:01:49;6.28;;;1.88;;
68647;SDS011;55632;51.962;16.116;2023-05-31T15:13:22;3.97;;;1.67;;
68647;SDS011;55632;51.962;16.116;2023-05-31T15:18:23;6.15;;;2.08;;
68647;SDS011;55632;51.962;16.116;2023-05-31T15:23:24;2.83;;;1.85;;
68647;SDS011;55632;51.962;16.116;2023-05-31T15:28:46;4.03;;;2.03;;
68647;SDS011;55632;51.962;16.116;2023-05-31T15:33:52;40.97;;;4.60;;
68647;SDS011;55632;51.962;16.116;2023-05-31T15:38:58;4.80;;;1.83;;
68647;SDS011;55632;51.962;16.116;2023-05-31T15:44:29;4.80;;;2.03;;
68647;SDS011;55632;51.962;16.116;2023-05-31T15:50:24;4.38;;;1.70;;
68647;SDS011;55632;51.962;16.116;2023-05-31T15:55:44;6.32;;;2.25;;
68647;SDS011;55632;51.962;16.116;2023-05-31T16:00:46;34.58;;;16.95;;
68647;SDS011;55632;51.962;16.116;2023-05-31T16:05:50;2.80;;;1.77;;
68647;SDS011;55632;51.962;16.116;2023-05-31T16:10:51;5.18;;;1.80;;
68647;SDS011;55632;51.962;16.116;2023-05-31T16:15:52;4.72;;;2.22;;
68647;SDS011;55632;51.962;16.116;2023-05-31T16:20:56;5.72;;;2.58;;
68647;SDS011;55632;51.962;16.116;2023-05-31T16:25:57;6.38;;;2.13;;
68647;SDS011;55632;51.962;16.116;2023-05-31T16:30:57;5.40;;;3.45;;
68647;SDS011;55632;51.962;16.116;2023-05-31T16:36:00;4.97;;;2.25;;
68647;SDS011;55632;51.962;16.116;2023-05-31T16:41:06;24.15;;;12.88;;
68647;SDS011;55632;51.962;16.116;2023-05-31T16:46:12;6.07;;;3.30;;
68647;SDS011;55632;51.962;16.116;2023-05-31T16:51:13;7.20;;;2.25;;
68647;SDS011;55632;51.962;16.116;2023-05-31T16:56:14;13.05;;;5.72;;
68647;SDS011;55632;51.962;16.116;2023-05-31T17:01:22;6.82;;;2.15;;
68647;SDS011;55632;51.962;16.116;2023-05-31T17:06:23;3.97;;;1.95;;
68647;SDS011;55632;51.962;16.116;2023-05-31T17:11:24;10.27;;;3.28;;
68647;SDS011;55632;51.962;16.116;2023-05-31T17:16:29;8.65;;;3.47;;
68647;SDS011;55632;51.962;16.116;2023-05-31T17:21:32;5.93;;;2.20;;
68647;SDS011;55632;51.962;16.116;2023-05-31T17:26:32;6.13;;;2.90;;
68647;SDS011;55632;51.962;16.116;2023-05-31T17:31:36;9.70;;;2.15;;
68647;SDS011;55632;51.962;16.116;2023-05-31T17:36:38;9.38;;;2.50;;
68647;SDS011;55632;51.962;16.116;2023-05-31T17:41:39;5.40;;;2.67;;
68647;SDS011;55632;51.962;16.116;2023-05-31T17:46:43;5.85;;;2.75;;
68647;SDS011;55632;51.962;16.116;2023-05-31T17:51:44;29.98;;;21.98;;
68647;SDS011;55632;51.962;16.116;2023-05-31T17:56:48;30.73;;;14.75;;
68647;SDS011;55632;51.962;16.116;2023-05-31T18:01:53;78.93;;;22.73;;
68647;SDS011;55632;51.962;16.116;2023-05-31T18:06:56;55.67;;;27.17;;
68647;SDS011;55632;51.962;16.116;2023-05-31T18:12:03;85.55;;;35.65;;
68647;SDS011;55632;51.962;16.116;2023-05-31T18:17:05;84.38;;;37.40;;
68647;SDS011;55632;51.962;16.116;2023-05-31T18:22:09;65.63;;;30.20;;
68647;SDS011;55632;51.962;16.116;2023-05-31T18:27:20;43.15;;;18.90;;
68647;SDS011;55632;51.962;16.116;2023-05-31T18:32:21;54.15;;;26.42;;
68647;SDS011;55632;51.962;16.116;2023-05-31T18:37:22;52.92;;;17.42;;
68647;SDS011;55632;51.962;16.116;2023-05-31T18:42:28;104.20;;;42.17;;
68647;SDS011;55632;51.962;16.116;2023-05-31T18:47:29;136.80;;;50.80;;
68647;SDS011;55632;51.962;16.116;2023-05-31T18:52:31;171.82;;;54.88;;
68647;SDS011;55632;51.962;16.116;2023-05-31T18:57:31;75.57;;;30.38;;
68647;SDS011;55632;51.962;16.116;2023-05-31T19:02:32;50.42;;;15.65;;
68647;SDS011;55632;51.962;16.116;2023-05-31T19:07:34;18.45;;;9.35;;
68647;SDS011;55632;51.962;16.116;2023-05-31T19:12:35;13.95;;;5.90;;
68647;SDS011;55632;51.962;16.116;2023-05-31T19:17:36;7.70;;;4.35;;
68647;SDS011;55632;51.962;16.116;2023-05-31T19:22:46;9.50;;;4.25;;
68647;SDS011;55632;51.962;16.116;2023-05-31T19:27:48;3.90;;;2.55;;
68647;SDS011;55632;51.962;16.116;2023-05-31T19:32:52;3.85;;;2.40;;
68647;SDS011;55632;51.962;16.116;2023-05-31T19:37:53;2.35;;;1.75;;
68647;SDS011;55632;51.962;16.116;2023-05-31T19:42:54;1.88;;;1.75;;
68647;SDS011;55632;51.962;16.116;2023-05-31T19:48:01;1.80;;;1.70;;
68647;SDS011;55632;51.962;16.116;2023-05-31T19:53:07;3.28;;;2.78;;
68647;SDS011;55632;51.962;16.116;2023-05-31T19:58:07;4.03;;;2.40;;
68647;SDS011;55632;51.962;16.116;2023-05-31T20:03:08;2.67;;;1.95;;
68647;SDS011;55632;51.962;16.116;2023-05-31T20:08:09;2.13;;;1.50;;
68647;SDS011;55632;51.962;16.116;2023-05-31T20:13:12;7.93;;;2.33;;
68647;SDS011;55632;51.962;16.116;2023-05-31T20:18:14;3.08;;;2.22;;
68647;SDS011;55632;51.962;16.116;2023-05-31T20:23:19;4.90;;;2.13;;
68647;SDS011;55632;51.962;16.116;2023-05-31T20:28:25;4.70;;;2.17;;
68647;SDS011;55632;51.962;16.116;2023-05-31T20:33:26;6.60;;;1.85;;
68647;SDS011;55632;51.962;16.116;2023-05-31T20:38:30;2.38;;;2.00;;
68647;SDS011;55632;51.962;16.116;2023-05-31T20:43:33;6.70;;;2.83;;
68647;SDS011;55632;51.962;16.116;2023-05-31T20:48:36;9.88;;;6.55;;
68647;SDS011;55632;51.962;16.116;2023-05-31T20:53:39;16.30;;;9.23;;
68647;SDS011;55632;51.962;16.116;2023-05-31T20:58:41;16.65;;;7.55;;
68647;SDS011;55632;51.962;16.116;2023-05-31T21:03:45;13.02;;;6.55;;
68647;SDS011;55632;51.962;16.116;2023-05-31T21:08:45;7.20;;;4.13;;
68647;SDS011;55632;51.962;16.116;2023-05-31T21:13:46;7.28;;;3.78;;
68647;SDS011;55632;51.962;16.116;2023-05-31T21:18:47;12.88;;;6.10;;
68647;SDS011;55632;51.962;16.116;2023-05-31T21:23:48;6.28;;;2.83;;
68647;SDS011;55632;51.962;16.116;2023-05-31T21:28:49;4.80;;;2.28;;
68647;SDS011;55632;51.962;16.116;2023-05-31T21:33:50;5.75;;;2.60;;
68647;SDS011;55632;51.962;16.116;2023-05-31T21:38:53;5.93;;;2.03;;
68647;SDS011;55632;51.962;16.116;2023-05-31T21:43:53;5.97;;;2.50;;
68647;SDS011;55632;51.962;16.116;2023-05-31T21:48:56;9.73;;;2.13;;
68647;SDS011;55632;51.962;16.116;2023-05-31T21:53:57;25.92;;;4.40;;
68647;SDS011;55632;51.962;16.116;2023-05-31T21:58:58;7.03;;;2.03;;
68647;SDS011;55632;51.962;16.116;2023-05-31T22:04:01;33.90;;;14.63;;
68647;SDS011;55632;51.962;16.116;2023-05-31T22:09:02;40.58;;;23.50;;
68647;SDS011;55632;51.962;16.116;2023-05-31T22:14:03;43.35;;;24.40;;
68647;SDS011;55632;51.962;16.116;2023-05-31T22:19:04;22.30;;;12.98;;
68647;SDS011;55632;51.962;16.116;2023-05-31T22:24:05;10.55;;;5.32;;
68647;SDS011;55632;51.962;16.116;2023-05-31T22:29:05;55.35;;;18.10;;
68647;SDS011;55632;51.962;16.116;2023-05-31T22:34:06;21.33;;;7.80;;
68647;SDS011;55632;51.962;16.116;2023-05-31T22:39:07;45.92;;;20.30;;
68647;SDS011;55632;51.962;16.116;2023-05-31T22:44:10;37.78;;;17.02;;
68647;SDS011;55632;51.962;16.116;2023-05-31T22:49:13;10.23;;;4.75;;
68647;SDS011;55632;51.962;16.116;2023-05-31T22:54:15;14.40;;;7.22;;
68647;SDS011;55632;51.962;16.116;2023-05-31T22:59:16;13.52;;;7.28;;
68647;SDS011;55632;51.962;16.116;2023-05-31T23:04:17;10.50;;;4.82;;
68647;SDS011;55632;51.962;16.116;2023-05-31T23:09:18;9.98;;;4.70;;
68647;SDS011;55632;51.962;16.116;2023-05-31T23:14:28;6.05;;;3.30;;
68647;SDS011;55632;51.962;16.116;2023-05-31T23:19:29;7.25;;;4.25;;
68647;SDS011;55632;51.962;16.116;2023-05-31T23:24:39;8.25;;;4.90;;
68647;SDS011;55632;51.962;16.116;2023-05-31T23:29:43;7.38;;;3.88;;
68647;SDS011;55632;51.962;16.116;2023-05-31T23:34:47;5.72;;;3.72;;
68647;SDS011;55632;51.962;16.116;2023-05-31T23:39:48;5.68;;;3.22;;
68647;SDS011;55632;51.962;16.116;2023-05-31T23:44:53;6.38;;;3.58;;
68647;SDS011;55632;51.962;16.116;2023-05-31T23:49:53;6.90;;;2.63;;
68647;SDS011;55632;51.962;16.116;2023-05-31T23:54:57;8.65;;;5.57;;
68647;SDS011;55632;51.962;16.116;2023-05-31T23:59:58;5.93;;;4.05;;
